Time;durP1;ratioP1;P1;durP2;ratioP2;P2;SDS_P1;SDS_P2;PMS_P1;PMS_P2;Temp;Humidity;BMP_temperature;BMP_pressure;BME280_temperature;BME280_humidity;BME280_pressure;Samples;Min_cycle;Max_cycle;Signal;HPM_P1;HPM_P2
2021/11/17 02:27:07;;;;;;;1.42;0.82;;;;;;;12.47;100.00;100160.28;5072282;28;20079;-51
2021/11/17 02:30:16;;;;;;;0.22;0.20;;;;;;;12.30;100.00;100157.19;5072406;28;20071;-51
2021/11/17 02:33:46;;;;;;;3.53;0.75;;;;;;;12.18;100.00;100167.41;5077489;28;20057;-52
2021/11/17 02:36:59;;;;;;;1.65;0.22;;;;;;;12.10;100.00;100171.81;5102114;28;20035;-51
2021/11/17 02:40:27;;;;;;;0.17;0.17;;;;;;;12.19;100.00;100168.91;5088023;28;20051;-51
2021/11/17 02:43:50;;;;;;;1.42;0.28;;;;;;;12.19;100.00;100168.16;5074654;28;20105;-51
2021/11/17 02:47:28;;;;;;;2.28;1.45;;;;;;;12.21;100.00;100167.69;5072750;28;20047;-51
2021/11/17 02:50:41;;;;;;;3.47;0.70;;;;;;;12.19;100.00;100168.91;5072475;28;20063;-51
2021/11/17 02:54:16;;;;;;;12.23;1.02;;;;;;;12.24;100.00;100175.09;5072418;28;20035;-51
2021/11/17 02:57:45;;;;;;;7.13;0.30;;;;;;;12.24;100.00;100175.09;5072544;28;20545;-50
2021/11/17 03:00:48;;;;;;;9.60;0.68;;;;;;;12.23;100.00;100177.13;5069860;28;20573;-51
2021/11/17 03:04:17;;;;;;;0.47;0.35;;;;;;;12.17;100.00;100181.84;5072077;28;20674;-51
2021/11/17 03:07:20;;;;;;;26.92;1.25;;;;;;;12.16;100.00;100175.47;5072646;28;20594;-51
2021/11/17 03:10:39;;;;;;;0.10;0.10;;;;;;;12.10;100.00;100168.25;5073493;28;20115;-50
2021/11/17 03:14:02;;;;;;;1.08;0.35;;;;;;;12.04;100.00;100173.72;5075483;28;20043;-50
2021/11/17 03:17:32;;;;;;;1.13;0.88;;;;;;;12.06;100.00;100179.59;5082157;28;20082;-50
2021/11/17 03:20:38;;;;;;;5.38;0.50;;;;;;;12.07;100.00;100183.94;5076429;28;20484;-51
2021/11/17 03:24:00;;;;;;;5.20;0.90;;;;;;;12.14;100.00;100182.78;5076094;28;20082;-51
2021/11/17 03:27:27;;;;;;;0.40;0.35;;;;;;;12.14;100.00;100169.59;5076159;28;20218;-51
2021/11/17 03:31:18;;;;;;;1.00;0.20;;;;;;;12.10;100.00;100182.97;5075898;28;20124;-50
2021/11/17 03:34:45;;;;;;;5.03;1.00;;;;;;;12.10;100.00;100177.41;5076066;28;20047;-50
2021/11/17 03:38:00;;;;;;;0.65;0.40;;;;;;;12.02;100.00;100190.16;5075581;28;20040;-50
2021/11/17 03:41:09;;;;;;;1.55;0.30;;;;;;;11.99;100.00;100187.56;5075488;28;20071;-51
2021/11/17 03:44:31;;;;;;;0.10;0.00;;;;;;;11.89;100.00;100189.63;5075585;28;20373;-50
2021/11/17 03:47:43;;;;;;;1.90;1.08;;;;;;;11.87;100.00;100197.72;5075630;28;20075;-50
2021/11/17 03:51:08;;;;;;;0.10;0.00;;;;;;;11.81;100.00;100188.47;5075762;28;20065;-50
2021/11/17 03:54:37;;;;;;;3.35;0.40;;;;;;;11.73;100.00;100187.28;5075211;28;20079;-50
2021/11/17 03:57:46;;;;;;;4.07;0.90;;;;;;;11.55;100.00;100192.94;5074401;28;20043;-50
2021/11/17 04:01:01;;;;;;;15.73;1.55;;;;;;;11.44;100.00;100187.13;5074884;28;20082;-50
2021/11/17 04:04:32;;;;;;;0.80;0.47;;;;;;;11.29;100.00;100186.28;5074873;28;20042;-50
2021/11/17 04:07:59;;;;;;;1.00;0.30;;;;;;;11.09;100.00;100194.41;5075482;28;20062;-50
2021/11/17 04:11:30;;;;;;;1.77;0.63;;;;;;;10.90;100.00;100201.28;5081655;28;20115;-50
2021/11/17 04:14:38;;;;;;;0.28;0.28;;;;;;;10.70;100.00;100206.63;5075122;28;20038;-50
2021/11/17 04:18:00;;;;;;;0.68;0.68;;;;;;;10.63;100.00;100211.25;5075201;28;20518;-50
2021/11/17 04:21:30;;;;;;;1.85;1.45;;;;;;;10.56;100.00;100213.59;5075077;28;20534;-50
2021/11/17 04:24:32;;;;;;;0.43;0.40;;;;;;;10.56;100.00;100219.97;5075214;28;20550;-50
2021/11/17 04:28:01;;;;;;;2.40;0.20;;;;;;;10.70;100.00;100224.09;5074915;28;20039;-50
2021/11/17 04:31:22;;;;;;;3.33;1.50;;;;;;;10.91;100.00;100228.72;5074855;28;20082;-50
2021/11/17 04:34:57;;;;;;;0.43;0.43;;;;;;;10.92;100.00;100235.81;5074605;28;20043;-51
2021/11/17 04:38:10;;;;;;;1.48;0.35;;;;;;;11.09;100.00;100231.41;5084265;28;20042;-50
2021/11/17 04:41:25;;;;;;;;;;;;;;;11.22;100.00;100232.00;5086391;28;20044;-50
2021/11/17 04:44:31;;;;;;;1.05;0.90;;;;;;;11.25;100.00;100224.72;5074220;28;21275;-50
2021/11/17 04:47:47;;;;;;;6.70;1.08;;;;;;;11.22;100.00;100234.00;5074634;28;20139;-50
2021/11/17 04:51:05;;;;;;;0.90;0.50;;;;;;;11.07;100.00;100241.50;5074522;28;20527;-50
2021/11/17 04:54:30;;;;;;;15.23;1.08;;;;;;;10.95;100.00;100245.25;5074545;28;20074;-50
2021/11/17 04:57:57;;;;;;;2.35;0.68;;;;;;;10.85;100.00;100240.94;5074529;28;20097;-50
2021/11/17 05:01:08;;;;;;;0.25;0.20;;;;;;;10.76;100.00;100247.31;5074095;28;20055;-50
2021/11/17 05:04:16;;;;;;;11.18;1.08;;;;;;;10.86;100.00;100253.63;5084777;28;20097;-51
2021/11/17 05:07:38;;;;;;;3.30;0.57;;;;;;;10.80;100.00;100258.28;5074354;28;20537;-50
2021/11/17 05:10:56;;;;;;;2.88;0.93;;;;;;;10.63;100.00;100258.59;5074513;28;20529;-50
2021/11/17 05:14:22;;;;;;;0.20;0.20;;;;;;;10.56;100.00;100267.31;5074059;28;20051;-50
2021/11/17 05:17:37;;;;;;;7.88;0.32;;;;;;;10.42;100.00;100270.69;5073068;28;20083;-50
2021/11/17 05:21:07;;;;;;;0.10;0.10;;;;;;;10.40;100.00;100278.75;5073673;28;20448;-50
2021/11/17 05:24:29;;;;;;;30.10;1.13;;;;;;;10.29;100.00;100283.22;5073896;28;20043;-50
2021/11/17 05:27:41;;;;;;;0.90;0.50;;;;;;;10.16;100.00;100294.50;5073667;28;20090;-50
2021/11/17 05:30:59;;;;;;;0.20;0.20;;;;;;;10.06;100.00;100301.25;5073689;28;20039;-50
2021/11/17 05:34:44;;;;;;;1.00;0.57;;;;;;;9.92;100.00;100293.50;5084484;28;20039;-50
2021/11/17 05:37:55;;;;;;;0.22;0.22;;;;;;;9.89;100.00;100303.56;5059529;28;20090;-50
2021/11/17 05:41:17;;;;;;;;;;;;;;;9.93;100.00;100303.41;5072713;28;20044;-50
2021/11/17 05:44:35;;;;;;;8.48;0.82;;;;;;;10.07;100.00;100316.72;5073893;28;19935;-52
2021/11/17 05:48:00;;;;;;;0.65;0.30;;;;;;;10.24;100.00;100315.25;5073534;28;20417;-52
2021/11/17 05:51:25;;;;;;;0.85;0.82;;;;;;;10.33;100.00;100314.47;5073358;28;20035;-53
2021/11/17 05:54:53;;;;;;;0.90;0.47;;;;;;;10.25;100.00;100316.00;5073313;28;20494;-53
2021/11/17 05:58:11;;;;;;;4.80;0.50;;;;;;;10.10;100.00;100315.78;5073178;28;20119;-53
2021/11/17 06:01:36;;;;;;;2.05;0.68;;;;;;;10.15;100.00;100318.00;5073283;28;20086;-54
2021/11/17 06:04:39;;;;;;;0.50;0.50;;;;;;;10.14;100.00;100322.00;5073053;28;20047;-53
2021/11/17 06:07:41;;;;;;;0.73;0.22;;;;;;;10.15;100.00;100329.16;5073241;28;20089;-53
2021/11/17 06:10:51;;;;;;;3.13;0.68;;;;;;;10.08;100.00;100328.63;5076137;28;20067;-53
2021/11/17 06:13:56;;;;;;;10.73;0.88;;;;;;;10.03;100.00;100338.34;5072472;28;20396;-53
2021/11/17 06:17:07;;;;;;;0.35;0.30;;;;;;;10.13;100.00;100334.41;5072184;28;20047;-54
2021/11/17 06:20:13;;;;;;;7.33;0.43;;;;;;;10.13;100.00;100331.63;5072348;28;20113;-54
2021/11/17 06:23:25;;;;;;;4.78;1.00;;;;;;;10.19;100.00;100329.78;5072640;28;20495;-53
2021/11/17 06:26:34;;;;;;;11.50;0.60;;;;;;;10.15;100.00;100340.28;5072588;28;20051;-54
2021/11/17 06:29:44;;;;;;;0.65;0.25;;;;;;;10.17;100.00;100332.25;5072139;28;20124;-53
2021/11/17 06:32:49;;;;;;;0.20;0.20;;;;;;;10.30;100.00;100341.22;5072565;28;20039;-53
2021/11/17 06:35:53;;;;;;;1.17;0.32;;;;;;;10.39;100.00;100338.47;5072502;28;20098;-53
2021/11/17 06:38:56;;;;;;;1.50;0.52;;;;;;;10.54;100.00;100344.97;5072016;28;20056;-53
2021/11/17 06:42:01;;;;;;;9.27;0.63;;;;;;;10.58;100.00;100340.03;5072618;28;20039;-53
2021/11/17 06:45:17;;;;;;;6.13;0.65;;;;;;;10.59;100.00;100341.56;5072328;28;20550;-54
2021/11/17 06:48:22;;;;;;;0.60;0.55;;;;;;;10.58;100.00;100351.16;5072602;28;20178;-53
2021/11/17 06:51:25;;;;;;;5.55;0.50;;;;;;;10.57;100.00;100343.25;5072306;28;20094;-53
2021/11/17 06:54:28;;;;;;;6.20;1.33;;;;;;;10.61;100.00;100353.00;5071901;28;20051;-54
2021/11/17 06:57:32;;;;;;;0.85;0.43;;;;;;;10.62;100.00;100368.50;5072706;28;20161;-55
2021/11/17 07:00:37;;;;;;;0.80;0.73;;;;;;;10.70;100.00;100362.63;5072377;28;20078;-57
2021/11/17 07:03:40;;;;;;;2.53;1.33;;;;;;;10.71;100.00;100358.56;5072422;28;20523;-56
2021/11/17 07:06:43;;;;;;;4.00;1.73;;;;;;;10.72;100.00;100369.25;5072269;28;20500;-56
2021/11/17 07:09:46;;;;;;;0.40;0.40;;;;;;;10.61;100.00;100372.50;5072013;28;20448;-56
2021/11/17 07:12:49;;;;;;;1.17;0.55;;;;;;;10.56;100.00;100380.69;5072298;28;20170;-56
2021/11/17 07:15:52;;;;;;;1.50;1.40;;;;;;;10.61;100.00;100375.28;5072113;28;20085;-56
2021/11/17 07:18:56;;;;;;;1.15;0.35;;;;;;;10.61;100.00;100375.28;5072174;28;20086;-56
2021/11/17 07:22:01;;;;;;;1.73;0.50;;;;;;;10.60;100.00;100387.66;5072491;28;20125;-56
2021/11/17 07:25:08;;;;;;;0.85;0.32;;;;;;;10.58;100.00;100395.72;5071745;28;20047;-56
2021/11/17 07:28:11;;;;;;;3.92;0.30;;;;;;;10.56;100.00;100402.97;5071946;28;20094;-56
2021/11/17 07:31:14;;;;;;;2.63;0.95;;;;;;;10.63;100.00;100409.00;5072129;28;20142;-56
2021/11/17 07:34:17;;;;;;;0.40;0.40;;;;;;;10.70;100.00;100415.53;5071823;28;20082;-55
2021/11/17 07:37:20;;;;;;;2.97;0.65;;;;;;;10.73;100.00;100418.16;5071835;28;20047;-56
2021/11/17 07:40:23;;;;;;;0.65;0.35;;;;;;;10.66;100.00;100413.66;5071746;28;20044;-56
2021/11/17 07:43:27;;;;;;;3.03;1.08;;;;;;;10.69;100.00;100428.69;5071671;28;20059;-55
2021/11/17 07:46:30;;;;;;;1.65;0.38;;;;;;;10.55;100.00;100424.47;5071507;28;20066;-55
2021/11/17 07:49:33;;;;;;;1.38;0.35;;;;;;;10.48;100.00;100424.00;5071297;28;20583;-55
2021/11/17 07:52:36;;;;;;;5.35;1.90;;;;;;;10.31;100.00;100431.84;5071704;28;20082;-55
2021/11/17 07:55:41;;;;;;;0.65;0.38;;;;;;;10.25;100.00;100430.13;5071543;28;20178;-55
2021/11/17 07:58:46;;;;;;;1.38;0.57;;;;;;;10.21;100.00;100437.84;5071467;28;20124;-55
2021/11/17 08:01:50;;;;;;;2.33;0.80;;;;;;;10.13;100.00;100436.59;5071702;28;20043;-55
2021/11/17 08:04:53;;;;;;;0.73;0.73;;;;;;;10.07;100.00;100441.19;5074270;28;20132;-55
2021/11/17 08:07:57;;;;;;;4.30;1.50;;;;;;;9.98;100.00;100447.47;5074280;28;20110;-55
2021/11/17 08:11:03;;;;;;;0.80;0.25;;;;;;;9.93;100.00;100450.84;5081217;28;20040;-55
2021/11/17 08:14:07;;;;;;;0.28;0.20;;;;;;;9.92;100.00;100460.41;5075042;28;20122;-54
2021/11/17 08:17:10;;;;;;;4.35;1.02;;;;;;;9.91;100.00;100453.31;5074920;28;20503;-55
2021/11/17 08:20:17;;;;;;;9.68;1.27;;;;;;;9.98;100.00;100461.41;5075070;28;20036;-55
2021/11/17 08:23:20;;;;;;;0.50;0.35;;;;;;;10.17;100.00;100454.69;5074837;28;20082;-55
2021/11/17 08:26:24;;;;;;;3.25;0.75;;;;;;;10.26;100.00;100465.09;5075000;28;20070;-55
2021/11/17 08:29:27;;;;;;;16.60;1.35;;;;;;;10.33;100.00;100476.69;5074015;28;20055;-55
2021/11/17 08:32:30;;;;;;;2.78;0.88;;;;;;;10.45;100.00;100470.25;5085759;28;20047;-54
2021/11/17 08:35:34;;;;;;;6.32;0.65;;;;;;;10.53;100.00;100476.31;5074380;28;20047;-54
2021/11/17 08:38:38;;;;;;;5.57;0.63;;;;;;;10.61;100.00;100472.75;5074519;28;20093;-54
2021/11/17 08:41:42;;;;;;;2.08;0.63;;;;;;;10.73;100.00;100473.09;5074156;28;20044;-54
2021/11/17 08:44:44;;;;;;;5.40;0.88;;;;;;;10.74;100.00;100474.66;5074653;28;20515;-54
2021/11/17 08:47:49;;;;;;;26.73;2.47;;;;;;;10.79;100.00;100465.69;5073769;28;20039;-54
2021/11/17 08:50:55;;;;;;;1.30;0.77;;;;;;;10.91;100.00;100473.13;5074711;28;20558;-54
2021/11/17 08:54:00;;;;;;;7.68;1.65;;;;;;;10.95;100.00;100479.34;5082202;28;20084;-54
2021/11/17 08:57:05;;;;;;;1.50;0.30;;;;;;;11.09;100.00;100495.44;5074414;28;20443;-54
2021/11/17 09:00:11;;;;;;;16.38;1.92;;;;;;;11.07;100.00;100498.69;5073954;28;20420;-54
2021/11/17 09:03:16;;;;;;;1.55;0.38;;;;;;;11.10;100.00;100503.34;5073556;28;20065;-54
2021/11/17 09:06:19;;;;;;;7.35;0.88;;;;;;;11.29;100.00;100512.50;5074485;28;20079;-54
2021/11/17 09:09:22;;;;;;;1.95;1.23;;;;;;;11.41;100.00;100517.16;5073695;28;20044;-54
2021/11/17 09:12:25;;;;;;;4.13;1.38;;;;;;;11.35;100.00;100521.78;5084068;28;20042;-54
2021/11/17 09:15:31;;;;;;;4.90;0.90;;;;;;;11.52;100.00;100517.44;5085756;28;20282;-56
2021/11/17 09:18:35;;;;;;;1.65;0.55;;;;;;;11.52;100.00;100511.84;5082600;28;20047;-56
2021/11/17 09:21:41;;;;;;;0.75;0.75;;;;;;;11.65;100.00;100515.25;5073157;28;20038;-56
2021/11/17 09:24:44;;;;;;;1.48;0.98;;;;;;;11.72;100.00;100519.78;5073235;28;20078;-56
2021/11/17 09:27:48;;;;;;;8.40;1.88;;;;;;;11.70;100.00;100520.25;5073370;28;20044;-56
2021/11/17 09:30:52;;;;;;;2.38;0.88;;;;;;;11.73;100.00;100527.69;5076891;28;20392;-56
2021/11/17 09:33:56;;;;;;;1.50;0.55;;;;;;;11.81;100.00;100530.91;5088020;28;20043;-56
2021/11/17 09:37:03;;;;;;;13.80;0.80;;;;;;;11.91;100.00;100538.81;5073397;28;20090;-56
2021/11/17 09:40:09;;;;;;;0.55;0.55;;;;;;;11.96;100.00;100540.97;5072967;28;20396;-56
2021/11/17 09:43:17;;;;;;;0.20;0.20;;;;;;;12.02;100.00;100555.06;5073449;28;20047;-56
2021/11/17 09:46:27;;;;;;;13.60;1.63;;;;;;;11.60;100.00;100557.75;5075721;28;20663;-56
2021/11/17 09:49:37;;;;;;;0.88;0.52;;;;;;;11.50;100.00;100558.97;5089705;28;20042;-55
2021/11/17 09:52:47;;;;;;;4.38;0.85;;;;;;;11.56;100.00;100557.13;5090148;28;20085;-56
2021/11/17 09:56:01;;;;;;;5.30;0.98;;;;;;;11.63;100.00;100548.44;5089056;28;20039;-55
2021/11/17 09:59:15;;;;;;;4.38;0.73;;;;;;;11.67;100.00;100540.72;5090836;28;20491;-55
2021/11/17 10:02:39;;;;;;;3.17;0.88;;;;;;;11.93;100.00;100547.50;5090946;28;20051;-55
2021/11/17 10:13:19;;;;;;;3.03;1.10;;;;;;;12.11;100.00;100560.63;5089189;28;20039;-55
2021/11/17 10:16:23;;;;;;;0.20;0.20;;;;;;;12.25;100.00;100550.84;5083201;28;20208;-55
2021/11/17 10:19:32;;;;;;;7.60;1.27;;;;;;;12.70;100.00;100542.28;5072445;28;20075;-55
2021/11/17 10:22:36;;;;;;;1.30;1.02;;;;;;;12.87;100.00;100540.63;5072220;28;20408;-55
2021/11/17 10:25:42;;;;;;;4.63;1.05;;;;;;;13.01;100.00;100545.53;5071900;28;20048;-55
2021/11/17 10:28:59;;;;;;;27.77;1.48;;;;;;;13.04;100.00;100555.00;5072293;28;20451;-55
2021/11/17 10:32:04;;;;;;;16.92;1.20;;;;;;;12.90;100.00;100545.28;5072385;28;20062;-55
2021/11/17 10:35:21;;;;;;;0.98;0.77;;;;;;;13.11;100.00;100546.25;5072072;28;20093;-55
2021/11/17 10:38:29;;;;;;;1.23;0.70;;;;;;;13.24;100.00;100549.59;5072649;28;20109;-56
2021/11/17 10:41:33;;;;;;;0.20;0.20;;;;;;;13.43;100.00;100542.59;5072175;28;20043;-55
2021/11/17 10:44:54;;;;;;;7.13;0.38;;;;;;;13.60;100.00;100546.50;5071430;28;20047;-55
2021/11/17 10:47:57;;;;;;;0.60;0.50;;;;;;;13.66;100.00;100547.41;5071895;28;20102;-57
2021/11/17 10:51:26;;;;;;;6.07;0.90;;;;;;;13.53;100.00;100535.69;5071968;28;20300;-55
2021/11/17 10:54:32;;;;;;;1.35;0.65;;;;;;;13.41;100.00;100540.28;5072063;28;20043;-56
2021/11/17 10:57:38;;;;;;;6.22;0.93;;;;;;;13.57;100.00;100541.88;5072310;28;20050;-56
2021/11/17 11:00:51;;;;;;;0.80;0.55;;;;;;;13.63;100.00;100539.94;5071639;28;20094;-55
2021/11/17 11:04:01;;;;;;;2.28;0.93;;;;;;;13.69;100.00;100555.59;5072072;28;20067;-56
2021/11/17 11:07:24;;;;;;;0.55;0.55;;;;;;;13.69;100.00;100550.00;5072163;28;20569;-56
2021/11/17 11:10:41;;;;;;;2.67;0.85;;;;;;;13.99;100.00;100561.25;5073084;28;20039;-56
2021/11/17 11:13:54;;;;;;;3.80;1.13;;;;;;;14.06;100.00;100558.81;5079412;28;20052;-55
2021/11/17 11:17:19;;;;;;;1.95;0.82;;;;;;;13.91;100.00;100560.84;5071714;28;20044;-55
2021/11/17 11:20:24;;;;;;;5.65;1.77;;;;;;;13.93;100.00;100565.94;5072160;28;20047;-55
2021/11/17 11:23:32;;;;;;;2.20;1.42;;;;;;;13.89;100.00;100566.16;5071889;28;20040;-55
2021/11/17 11:27:00;;;;;;;5.57;1.20;;;;;;;13.84;100.00;100566.06;5071639;28;20043;-55
2021/11/17 11:30:03;;;;;;;0.38;0.35;;;;;;;13.74;100.00;100567.38;5071630;28;20079;-55
2021/11/17 11:33:24;;;;;;;7.28;1.00;;;;;;;13.67;100.00;100557.31;5071813;28;20381;-55
2021/11/17 11:36:27;;;;;;;5.75;1.48;;;;;;;13.78;100.00;100562.34;5071619;28;20046;-54
2021/11/17 11:39:33;;;;;;;1.90;0.55;;;;;;;13.77;100.00;100560.81;5074128;28;20114;-55
2021/11/17 11:43:08;;;;;;;3.63;1.05;;;;;;;13.81;100.00;100555.81;5083848;28;20039;-55
2021/11/17 11:46:23;;;;;;;17.23;2.75;;;;;;;14.08;100.00;100563.94;5083096;28;20511;-55
2021/11/17 11:49:36;;;;;;;3.20;1.63;;;;;;;14.26;100.00;100566.56;5075579;28;20039;-55
2021/11/17 11:53:03;;;;;;;15.75;1.35;;;;;;;14.45;100.00;100565.13;5074818;28;20079;-55
2021/11/17 11:56:36;;;;;;;14.80;1.00;;;;;;;14.51;100.00;100568.78;5075360;28;20089;-55
2021/11/17 11:59:40;;;;;;;1.42;0.60;;;;;;;14.49;100.00;100571.28;5074659;28;20083;-55
2021/11/17 12:02:56;;;;;;;1.77;0.35;;;;;;;14.50;100.00;100567.25;5075100;28;20079;-55
2021/11/17 12:06:06;;;;;;;1.85;1.23;;;;;;;14.29;100.00;100569.19;5074821;28;20097;-55
2021/11/17 12:09:17;;;;;;;6.00;0.93;;;;;;;14.36;100.00;100573.63;5074621;28;20047;-55
2021/11/17 12:12:27;;;;;;;0.82;0.75;;;;;;;14.53;100.00;100574.66;5086018;28;20046;-55
2021/11/17 12:15:36;;;;;;;6.57;0.70;;;;;;;14.73;100.00;100566.31;5089714;28;20047;-56
2021/11/17 12:18:50;;;;;;;12.82;2.15;;;;;;;14.87;100.00;100567.56;5074864;28;20537;-55
2021/11/17 12:22:07;;;;;;;5.38;1.10;;;;;;;14.83;100.00;100556.56;5074256;28;20040;-56
2021/11/17 12:25:10;;;;;;;4.95;1.05;;;;;;;14.70;100.00;100556.09;5071567;28;20109;-56
2021/11/17 12:28:16;;;;;;;3.35;1.27;;;;;;;14.70;100.00;100558.91;5049118;28;20067;-52
2021/11/17 12:31:25;;;;;;;0.38;0.32;;;;;;;14.56;100.00;100556.88;5047666;28;20043;-52
2021/11/17 12:34:37;;;;;;;5.85;0.70;;;;;;;14.53;100.00;100563.44;5046589;28;20118;-51
2021/11/17 12:37:53;;;;;;;1.23;0.75;;;;;;;14.28;100.00;100550.03;5048313;28;20109;-51
2021/11/17 12:41:09;;;;;;;0.70;0.70;;;;;;;14.34;100.00;100554.50;5047267;28;20079;-51
2021/11/17 12:44:29;;;;;;;4.68;1.38;;;;;;;14.35;100.00;100558.84;5047337;28;20428;-51
2021/11/17 12:47:50;;;;;;;0.82;0.20;;;;;;;14.34;100.00;100562.13;5046488;28;20098;-51
2021/11/17 12:51:04;;;;;;;4.53;0.82;;;;;;;14.30;100.00;100567.16;5047469;28;20563;-51
2021/11/17 12:54:07;;;;;;;1.80;0.43;;;;;;;14.35;100.00;100550.44;5047087;28;20039;-51
2021/11/17 12:57:15;;;;;;;1.13;0.93;;;;;;;14.53;100.00;100563.44;5048713;28;20039;-50
2021/11/17 13:00:18;;;;;;;0.73;0.52;;;;;;;14.77;100.00;100563.34;5049956;28;20043;-51
2021/11/17 13:03:48;;;;;;;8.13;1.70;;;;;;;14.89;100.00;100565.03;5050421;28;21056;-51
2021/11/17 13:06:57;;;;;;;0.10;0.00;;;;;;;14.96;100.00;100565.41;5047253;28;20043;-50
2021/11/17 13:10:01;;;;;;;4.32;0.47;;;;;;;15.05;100.00;100550.47;5048987;28;20139;-51
2021/11/17 13:13:33;;;;;;;1.13;0.80;;;;;;;15.01;100.00;100553.47;5050444;28;20492;-50
2021/11/17 13:16:39;;;;;;;11.10;0.88;;;;;;;14.98;100.00;100551.66;5048064;28;20075;-50
2021/11/17 13:19:46;;;;;;;0.77;0.22;;;;;;;15.02;100.00;100571.88;5048314;28;20383;-50
2021/11/17 13:23:07;;;;;;;0.30;0.30;;;;;;;15.00;100.00;100571.56;5047037;28;20031;-51
2021/11/17 13:26:24;;;;;;;4.55;0.38;;;;;;;15.06;100.00;100564.00;5046927;28;20028;-50
2021/11/17 13:29:49;;;;;;;13.95;1.15;;;;;;;15.03;100.00;100559.38;5046070;28;20596;-50
2021/11/17 13:33:15;;;;;;;4.18;0.45;;;;;;;15.03;100.00;100555.78;5054931;28;20074;-50
2021/11/17 13:36:54;;;;;;;1.63;0.30;;;;;;;14.96;100.00;100554.19;5041667;28;20547;-53
2021/11/17 13:39:59;;;;;;;6.80;0.63;;;;;;;15.02;100.00;100551.44;5027833;28;20742;-53
2021/11/17 13:43:03;;;;;;;2.75;0.85;;;;;;;15.05;100.00;100540.00;5029276;28;20110;-53
2021/11/17 13:46:09;;;;;;;1.38;0.73;;;;;;;14.99;100.00;100541.97;5030938;28;20224;-53
2021/11/17 13:49:12;;;;;;;1.08;0.63;;;;;;;14.90;100.00;100539.28;5032072;28;20048;-53
2021/11/17 13:52:19;;;;;;;6.70;1.13;;;;;;;14.94;100.00;100548.28;5029975;28;20319;-52
2021/11/17 13:55:26;;;;;;;1.50;0.68;;;;;;;14.96;100.00;100559.03;5031044;28;20395;-52
2021/11/17 13:58:31;;;;;;;1.42;0.50;;;;;;;14.92;100.00;100547.25;5030967;28;20320;-52
2021/11/17 14:01:34;;;;;;;0.57;0.10;;;;;;;15.00;100.00;100537.91;5028150;28;20059;-52
2021/11/17 14:04:37;;;;;;;4.47;0.63;;;;;;;15.09;100.00;100551.78;5029604;28;20575;-53
2021/11/17 14:07:41;;;;;;;1.00;0.57;;;;;;;15.11;100.00;100551.31;5028391;28;20105;-52
2021/11/17 14:10:45;;;;;;;0.98;0.80;;;;;;;15.02;100.00;100557.84;5032667;28;20270;-52
2021/11/17 14:13:48;;;;;;;1.17;0.40;;;;;;;14.99;100.00;100558.81;5030182;28;20260;-52
2021/11/17 14:16:52;;;;;;;2.53;0.80;;;;;;;14.91;100.00;100557.69;5028970;28;20299;-53
2021/11/17 14:19:55;;;;;;;5.00;1.05;;;;;;;14.96;100.00;100551.38;5029655;28;20059;-52
2021/11/17 14:22:58;;;;;;;2.30;0.52;;;;;;;14.91;100.00;100540.84;5030786;28;20428;-53
2021/11/17 14:26:07;;;;;;;1.25;0.28;;;;;;;14.89;100.00;100548.97;5029992;28;20060;-52
2021/11/17 14:29:19;;;;;;;4.30;1.05;;;;;;;14.81;100.00;100559.03;5031013;28;20035;-53
2021/11/17 14:32:34;;;;;;;12.50;0.73;;;;;;;14.71;100.00;100557.63;5031516;28;20131;-52
2021/11/17 14:35:38;;;;;;;3.60;0.95;;;;;;;14.64;100.00;100552.41;5031611;28;20252;-53
2021/11/17 14:38:41;;;;;;;2.38;1.02;;;;;;;14.63;100.00;100542.47;5030117;28;20050;-53
2021/11/17 14:41:45;;;;;;;0.68;0.32;;;;;;;14.56;100.00;100547.69;5028212;28;20109;-53
2021/11/17 14:44:48;;;;;;;3.25;0.80;;;;;;;14.48;100.00;100552.94;5028724;28;20196;-52
2021/11/17 14:47:52;;;;;;;1.48;0.60;;;;;;;14.47;100.00;100554.19;5029492;28;20044;-52
2021/11/17 14:50:56;;;;;;;5.15;0.47;;;;;;;14.37;100.00;100549.97;5031409;28;20095;-52
2021/11/17 14:53:59;;;;;;;4.90;1.23;;;;;;;14.36;100.00;100549.19;5031481;28;20288;-53
2021/11/17 14:57:04;;;;;;;0.65;0.47;;;;;;;14.33;100.00;100552.19;5031600;28;20535;-53
2021/11/17 15:00:15;;;;;;;2.60;0.75;;;;;;;14.39;100.00;100547.44;5031450;28;20102;-52
2021/11/17 15:03:18;;;;;;;1.55;0.45;;;;;;;14.23;100.00;100542.28;5030556;28;20043;-53
2021/11/17 15:06:22;;;;;;;1.08;0.52;;;;;;;14.08;100.00;100544.31;5029829;28;20317;-52
2021/11/17 15:09:26;;;;;;;1.17;0.30;;;;;;;13.88;100.00;100558.25;5030256;28;20729;-52
2021/11/17 15:12:32;;;;;;;2.20;0.57;;;;;;;13.78;100.00;100556.75;5046990;28;20521;-52
2021/11/17 15:15:42;;;;;;;2.17;0.65;;;;;;;13.76;100.00;100567.66;5034064;28;20040;-53
2021/11/17 15:18:47;;;;;;;0.35;0.25;;;;;;;13.78;100.00;100573.56;5033887;28;20169;-52
2021/11/17 15:21:51;;;;;;;2.42;0.68;;;;;;;13.76;100.00;100576.84;5033976;28;20255;-52
2021/11/17 15:24:54;;;;;;;0.75;0.40;;;;;;;13.74;100.00;100589.78;5038406;28;20101;-51
2021/11/17 15:28:02;;;;;;;0.80;0.80;;;;;;;13.80;100.00;100588.63;5037978;28;20036;-53
2021/11/17 15:31:09;;;;;;;11.20;0.73;;;;;;;13.83;100.00;100595.28;5038055;28;20362;-52
2021/11/17 15:34:12;;;;;;;4.57;0.93;;;;;;;13.78;100.00;100607.16;5037145;28;20229;-52
2021/11/17 15:37:16;;;;;;;0.88;0.32;;;;;;;13.80;100.00;100599.03;5037266;28;20048;-52
2021/11/17 15:40:24;;;;;;;3.83;0.75;;;;;;;13.75;100.00;100599.72;5038142;28;20616;-52
2021/11/17 15:43:28;;;;;;;1.08;0.63;;;;;;;13.69;100.00;100594.78;5045546;28;20405;-52
2021/11/17 15:46:30;;;;;;;17.25;1.55;;;;;;;13.65;100.00;100611.00;5036072;28;20366;-52
2021/11/17 15:49:36;;;;;;;1.38;0.40;;;;;;;13.65;100.00;100610.22;5035910;28;20059;-52
2021/11/17 15:52:40;;;;;;;10.10;1.17;;;;;;;13.62;100.00;100588.78;5033898;28;20060;-52
2021/11/17 15:55:43;;;;;;;1.20;0.85;;;;;;;13.57;100.00;100590.22;5034500;28;20062;-52
2021/11/17 15:58:46;;;;;;;15.88;1.90;;;;;;;13.45;100.00;100582.84;5033115;28;20420;-52
2021/11/17 16:01:51;;;;;;;4.20;0.32;;;;;;;13.41;100.00;100584.28;5050325;28;20109;-52
2021/11/17 16:04:54;;;;;;;3.03;0.28;;;;;;;13.32;100.00;100593.50;5053075;28;20435;-57
2021/11/17 16:07:57;;;;;;;11.45;1.65;;;;;;;13.23;100.00;100596.34;5051618;28;20035;-55
2021/11/17 16:11:01;;;;;;;3.10;0.90;;;;;;;13.24;100.00;100608.31;5051075;28;20032;-56
2021/11/17 16:14:04;;;;;;;0.73;0.45;;;;;;;13.20;100.00;100614.09;5050658;28;20058;-50
2021/11/17 16:17:08;;;;;;;7.13;1.48;;;;;;;13.15;100.00;100617.53;5050035;28;20027;-56
2021/11/17 16:20:19;;;;;;;5.32;1.40;;;;;;;13.12;100.00;100612.91;5051243;28;20052;-56
2021/11/17 16:26:31;;;;;;;0.80;0.70;;;;;;;13.09;100.00;100622.25;5050844;28;20326;-56
2021/11/17 16:29:34;;;;;;;1.45;0.68;;;;;;;13.04;100.00;100628.44;5048819;28;20260;-52
2021/11/17 16:32:39;;;;;;;1.45;1.00;;;;;;;13.03;100.00;100635.28;5060255;28;20046;-52
2021/11/17 16:35:43;;;;;;;5.20;0.82;;;;;;;13.03;100.00;100635.28;5083953;28;20083;-51
2021/11/17 16:38:48;;;;;;;3.17;0.70;;;;;;;13.02;100.00;100635.75;5075352;28;20055;-52
2021/11/17 16:41:51;;;;;;;1.90;1.40;;;;;;;13.02;100.00;100630.94;5074226;28;20103;-50
2021/11/17 16:44:54;;;;;;;5.85;1.15;;;;;;;13.01;100.00;100635.00;5073399;28;20109;-51
2021/11/17 16:47:57;;;;;;;3.10;1.02;;;;;;;13.04;100.00;100638.88;5073960;28;20047;-50
2021/11/17 16:51:00;;;;;;;23.58;4.07;;;;;;;13.05;100.00;100635.63;5074360;28;20031;-51
2021/11/17 16:54:05;;;;;;;3.92;0.82;;;;;;;13.06;100.00;100648.34;5073970;28;20058;-51
2021/11/17 16:57:08;;;;;;;12.35;1.08;;;;;;;13.09;100.00;100652.22;5074142;28;20051;-51
2021/11/17 17:00:15;;;;;;;2.63;0.47;;;;;;;13.13;100.00;100644.44;5073852;28;20225;-51
2021/11/17 17:03:22;;;;;;;1.48;0.38;;;;;;;13.14;100.00;100643.97;5073890;28;20058;-51
2021/11/17 17:06:28;;;;;;;4.15;0.35;;;;;;;13.13;100.00;100636.81;5073140;28;20404;-51
2021/11/17 17:09:31;;;;;;;11.30;0.93;;;;;;;13.15;100.00;100634.31;5073975;28;20431;-51
2021/11/17 17:12:34;;;;;;;0.45;0.45;;;;;;;13.21;100.00;100626.81;5077827;28;20115;-51